Погода Артур-Ногейрана 2 недели

Сан-Паулу, Бразилия

22 июля-04 августа
  • 22июля
    Сегодня
    +10°
    +28°
    Ясно и безоблачно
    ВремяПогодаТемператураВлажностьДавлениеВетер, м/сВероятность осадков
    00:00Ясно и безоблачно+16°C82 %712 мм2.2 м/с5 %
    03:00Ясно и безоблачно+15°C75 %712 мм2.8 м/с5 %
    06:00Ясно и безоблачно+12°C82 %712 мм1.6 м/с5 %
    09:00Ясно и безоблачно+16°C59 %714 мм0.6 м/с5 %
    12:00Ясно и безоблачно+24°C33 %715 мм0.8 м/с5 %
    15:00Ясно и безоблачно+27°C30 %713 мм1.5 м/с5 %
    18:00Ясно и безоблачно+23°C50 %713 мм2.3 м/с5 %
    21:00Ясно и безоблачно+18°C58 %713 мм3.2 м/с5 %
  • 23июля
    Вторник
    +11°
    +27°
    Практически безоблачно
    ВремяПогодаТемператураВлажностьДавлениеВетер, м/сВероятность осадков
    00:00Ясно и безоблачно+17°C67 %713 мм2.6 м/с5 %
    03:00Ясно и безоблачно+15°C68 %712 мм2.1 м/с5 %
    06:00Ясно и безоблачно+11°C78 %712 мм1.9 м/с5 %
    09:00Ясно и безоблачно+15°C59 %715 мм0.5 м/с5 %
    12:00Ясно и безоблачно+24°C37 %715 мм0.4 м/с5 %
    15:00Практически безоблачно+27°C30 %713 мм1.4 м/с5 %
    18:00Ясно и безоблачно+22°C47 %713 мм2.5 м/с5 %
    21:00Ясно и безоблачно+18°C50 %713 мм2.8 м/с5 %
  • 24июля
    Среда
    +12°
    +28°
    Небольшая облачность
    ВремяПогодаТемператураВлажностьДавлениеВетер, м/сВероятность осадков
    00:00Ясно и безоблачно+15°C67 %713 мм2.2 м/с5 %
    03:00Ясно и безоблачно+14°C67 %712 мм2.6 м/с5 %
    06:00Ясно и безоблачно+13°C67 %712 мм2.4 м/с5 %
    09:00Ясно и безоблачно+17°C47 %714 мм1.6 м/с5 %
    12:00Облачно с прояснениями+25°C33 %715 мм0.4 м/с5 %
    15:00Небольшая облачность+28°C26 %713 мм0.6 м/с5 %
    18:00Ясно и безоблачно+24°C44 %713 мм2.4 м/с5 %
    21:00Небольшая облачность+19°C49 %713 мм2.5 м/с5 %
  • 25июля
    Четверг
    +13°
    +29°
    Ясно и безоблачно
    ВремяПогодаТемператураВлажностьДавлениеВетер, м/сВероятность осадков
    00:00Облачно с прояснениями+17°C62 %713 мм2.2 м/с5 %
    03:00Ясно и безоблачно+15°C74 %712 мм2.0 м/с5 %
    06:00Ясно и безоблачно+13°C79 %712 мм2.2 м/с5 %
    09:00Ясно и безоблачно+18°C58 %713 мм1.8 м/с5 %
    12:00Практически безоблачно+26°C32 %713 мм2.5 м/с5 %
    15:00Ясно и безоблачно+28°C29 %711 мм1.6 м/с5 %
    18:00Ясно и безоблачно+23°C47 %711 мм1.6 м/с5 %
    21:00Ясно и безоблачно+20°C57 %711 мм2.1 м/с5 %
  • 26июля
    Пятница
    +14°
    +29°
    Облачно с прояснениями
    ВремяПогодаТемператураВлажностьДавлениеВетер, м/сВероятность осадков
    00:00Ясно и безоблачно+19°C66 %710 мм1.9 м/с5 %
    03:00Ясно и безоблачно+17°C67 %710 мм0.8 м/с5 %
    06:00Ясно и безоблачно+14°C75 %710 мм1.8 м/с5 %
    09:00Практически безоблачно+17°C54 %711 мм1.2 м/с5 %
    12:00Облачно с прояснениями+27°C28 %712 мм1.4 м/с5 %
    15:00Облачно с прояснениями+29°C25 %711 мм1.2 м/с5 %
    18:00Облачно с прояснениями+26°C39 %711 мм1.6 м/с5 %
    21:00Небольшая облачность+21°C52 %710 мм2.2 м/с5 %
Мы используем cookies
Соглашаюсь